Time;durP1;ratioP1;P1;durP2;ratioP2;P2;SDS_P1;SDS_P2;PMS_P1;PMS_P2;Temp;Humidity;BMP_temperature;BMP_pressure;BME280_temperature;BME280_humidity;BME280_pressure;Samples;Min_cycle;Max_cycle;Signal;HPM_P1;HPM_P2
2021/10/05 00:02:10;;;;;;;0.43;0.43;;;20.30;92.20;;;;;;5000002;28;20223;-85
2021/10/05 00:04:37;;;;;;;1.10;0.60;;;20.20;92.10;;;;;;5000071;28;20420;-84
2021/10/05 00:07:04;;;;;;;0.60;0.60;;;20.20;91.90;;;;;;4998910;28;20255;-82
2021/10/05 00:09:31;;;;;;;0.53;0.53;;;20.20;91.80;;;;;;4998655;28;20216;-83
2021/10/05 00:11:59;;;;;;;0.20;0.20;;;20.20;91.50;;;;;;4994969;28;20216;-85
2021/10/05 00:14:26;;;;;;;3.30;3.00;;;20.20;91.40;;;;;;5018917;28;20295;-84
2021/10/05 00:16:53;;;;;;;0.63;0.57;;;20.10;91.30;;;;;;5000450;28;20301;-82
2021/10/05 00:19:20;;;;;;;1.13;0.93;;;20.10;91.20;;;;;;4985358;28;20275;-85
2021/10/05 00:21:51;;;;;;;1.07;0.97;;;20.10;91.00;;;;;;4980552;28;20560;-86
2021/10/05 00:24:18;;;;;;;0.60;0.60;;;20.10;90.80;;;;;;4998753;28;20282;-85
2021/10/05 00:26:46;;;;;;;1.07;1.07;;;20.10;90.50;;;;;;4982849;28;20929;-83
2021/10/05 00:29:13;;;;;;;0.43;0.43;;;20.10;90.20;;;;;;5007113;28;20213;-84
2021/10/05 00:31:42;;;;;;;0.10;0.10;;;20.10;90.10;;;;;;4999267;28;20526;-85
2021/10/05 00:34:09;;;;;;;0.80;0.80;;;20.10;90.00;;;;;;5014925;28;20232;-84
2021/10/05 00:36:36;;;;;;;0.83;0.83;;;20.10;90.00;;;;;;4984711;28;20227;-84
2021/10/05 00:39:04;;;;;;;0.63;0.63;;;20.10;89.90;;;;;;5014981;28;20628;-84
2021/10/05 00:41:32;;;;;;;1.30;1.20;;;20.10;90.00;;;;;;4998437;28;20624;-85
2021/10/05 00:44:02;;;;;;;0.70;0.70;;;20.10;89.90;;;;;;4988040;28;20232;-85
2021/10/05 00:46:29;;;;;;;0.10;0.10;;;20.10;89.80;;;;;;4978734;28;20209;-84
2021/10/05 00:48:57;;;;;;;0.10;0.10;;;20.10;89.60;;;;;;4994548;28;20650;-85
2021/10/05 00:51:24;;;;;;;0.50;0.50;;;20.10;89.60;;;;;;4979433;28;20217;-83
2021/10/05 00:53:52;;;;;;;0.50;0.50;;;20.10;89.50;;;;;;4982205;28;20556;-84
2021/10/05 00:56:21;;;;;;;0.10;0.10;;;20.10;89.50;;;;;;4995254;28;20205;-84
2021/10/05 00:58:49;;;;;;;0.60;0.60;;;20.00;89.30;;;;;;4979678;28;20221;-84
2021/10/05 01:01:16;;;;;;;0.30;0.30;;;20.00;89.40;;;;;;4979906;28;20221;-84
2021/10/05 01:03:44;;;;;;;0.40;0.40;;;20.00;89.60;;;;;;4979277;28;20296;-86
2021/10/05 01:06:11;;;;;;;0.20;0.20;;;20.00;89.60;;;;;;4979210;28;20221;-83
2021/10/05 01:08:38;;;;;;;0.60;0.60;;;20.00;89.60;;;;;;4978661;28;20228;-84
2021/10/05 01:11:05;;;;;;;0.20;0.20;;;20.00;89.50;;;;;;4978679;28;20625;-84
2021/10/05 01:13:32;;;;;;;0.70;0.43;;;20.00;89.40;;;;;;4995914;28;20211;-84
2021/10/05 01:15:59;;;;;;;1.43;0.93;;;19.90;89.20;;;;;;4997881;28;20228;-84
2021/10/05 01:18:27;;;;;;;3.10;0.93;;;20.00;88.90;;;;;;4998449;28;20266;-83
2021/10/05 01:20:58;;;;;;;0.30;0.30;;;19.90;88.80;;;;;;4998768;28;20212;-83
2021/10/05 01:23:27;;;;;;;0.40;0.40;;;20.00;88.80;;;;;;5013779;28;20223;-82
2021/10/05 01:25:54;;;;;;;0.73;0.73;;;19.90;88.70;;;;;;4998336;28;20217;-83
2021/10/05 01:28:24;;;;;;;0.10;0.10;;;20.00;88.80;;;;;;4998970;28;20224;-82
2021/10/05 01:30:51;;;;;;;1.10;0.97;;;20.00;88.80;;;;;;5014983;28;20282;-83
2021/10/05 01:33:21;;;;;;;0.63;0.63;;;20.00;88.80;;;;;;4999886;28;20216;-83
2021/10/05 01:35:48;;;;;;;1.17;1.10;;;19.90;88.50;;;;;;4998674;28;20236;-83
2021/10/05 01:38:16;;;;;;;3.27;1.20;;;19.90;88.30;;;;;;5000101;28;20245;-84
2021/10/05 01:40:43;;;;;;;0.00;0.00;;;20.00;88.30;;;;;;4998757;28;20209;-82
2021/10/05 01:43:10;;;;;;;1.00;0.77;;;20.00;88.20;;;;;;5008877;28;20223;-82
2021/10/05 01:45:38;;;;;;;0.40;0.40;;;20.00;88.20;;;;;;5019496;28;20561;-83
2021/10/05 01:48:07;;;;;;;0.20;0.20;;;20.00;88.10;;;;;;5020397;28;20291;-84
2021/10/05 01:50:36;;;;;;;0.50;0.50;;;20.00;88.00;;;;;;5018543;28;20246;-83
2021/10/05 01:53:04;;;;;;;0.20;0.20;;;20.00;87.90;;;;;;5020297;28;20223;-83
2021/10/05 01:55:31;;;;;;;1.07;1.07;;;20.00;87.80;;;;;;5019220;28;20323;-84
2021/10/05 01:57:58;;;;;;;0.57;0.57;;;20.00;87.70;;;;;;5019622;28;20246;-83
2021/10/05 02:00:25;;;;;;;0.30;0.30;;;20.00;87.70;;;;;;5019965;28;20219;-83
2021/10/05 02:02:53;;;;;;;0.60;0.60;;;20.00;87.70;;;;;;5020561;28;20266;-83
2021/10/05 02:05:22;;;;;;;0.20;0.20;;;20.00;87.80;;;;;;5019904;28;20208;-83
2021/10/05 02:07:49;;;;;;;0.63;0.60;;;20.00;87.90;;;;;;5021387;28;20203;-83
2021/10/05 02:10:17;;;;;;;1.63;1.53;;;19.90;88.00;;;;;;5021047;28;20242;-84
2021/10/05 02:12:44;;;;;;;0.10;0.10;;;19.90;88.00;;;;;;5020557;28;20208;-83
2021/10/05 02:15:11;;;;;;;0.33;0.33;;;19.90;88.00;;;;;;5038328;28;20239;-83
2021/10/05 02:17:39;;;;;;;0.20;0.20;;;19.90;88.00;;;;;;5020675;28;20211;-83
2021/10/05 02:20:07;;;;;;;1.27;1.17;;;19.90;88.00;;;;;;5022012;28;20219;-83
2021/10/05 02:22:35;;;;;;;0.53;0.53;;;19.90;88.00;;;;;;5021816;28;20218;-83
2021/10/05 02:25:03;;;;;;;0.80;0.80;;;19.90;88.00;;;;;;5018847;28;20219;-83
2021/10/05 02:27:30;;;;;;;1.27;1.17;;;19.90;88.00;;;;;;5018271;28;20219;-83
2021/10/05 02:29:57;;;;;;;0.57;0.57;;;19.90;87.90;;;;;;5019212;28;20218;-82
2021/10/05 02:32:25;;;;;;;0.73;0.53;;;19.90;88.00;;;;;;5018506;28;20687;-83
2021/10/05 02:34:52;;;;;;;0.50;0.30;;;19.90;88.10;;;;;;5018920;28;20235;-82
2021/10/05 02:37:19;;;;;;;0.37;0.37;;;19.90;88.10;;;;;;5019744;28;20223;-82
2021/10/05 02:39:47;;;;;;;0.47;0.47;;;19.90;88.30;;;;;;5020616;28;20222;-82
2021/10/05 02:42:14;;;;;;;0.63;0.60;;;19.80;88.40;;;;;;5020230;28;20655;-82
2021/10/05 02:44:41;;;;;;;0.30;0.30;;;19.80;88.50;;;;;;5019930;28;20208;-82
2021/10/05 02:47:08;;;;;;;1.23;0.83;;;19.80;88.60;;;;;;5019660;28;20219;-83
2021/10/05 02:49:43;;;;;;;0.37;0.37;;;19.70;88.60;;;;;;5022034;28;20275;-83
2021/10/05 02:52:12;;;;;;;0.10;0.10;;;19.80;88.70;;;;;;5012979;28;20231;-83
2021/10/05 02:54:41;;;;;;;0.20;0.20;;;19.80;88.60;;;;;;4988452;28;20657;-84
2021/10/05 02:57:11;;;;;;;1.20;1.03;;;19.80;88.40;;;;;;4993683;28;20247;-84
2021/10/05 02:59:38;;;;;;;0.67;0.67;;;19.80;88.40;;;;;;4999436;28;20232;-84
2021/10/05 03:02:05;;;;;;;0.20;0.20;;;19.80;88.40;;;;;;4987068;28;20221;-83
2021/10/05 03:04:33;;;;;;;0.63;0.63;;;19.80;88.30;;;;;;4991748;28;20227;-82
2021/10/05 03:07:00;;;;;;;1.57;1.40;;;19.80;88.30;;;;;;4986980;28;20249;-83
2021/10/05 03:09:27;;;;;;;0.70;0.70;;;19.80;88.10;;;;;;4983238;28;20223;-83
2021/10/05 03:11:54;;;;;;;1.30;0.40;;;19.90;88.00;;;;;;4982505;28;20227;-84
2021/10/05 03:14:21;;;;;;;4.43;0.77;;;19.90;87.80;;;;;;4992640;28;20217;-82
2021/10/05 03:16:48;;;;;;;0.37;0.37;;;19.90;87.60;;;;;;5011168;28;20293;-83
2021/10/05 03:19:15;;;;;;;0.23;0.23;;;19.90;87.20;;;;;;5001087;28;20600;-83
2021/10/05 03:21:42;;;;;;;1.50;1.40;;;20.00;87.20;;;;;;5002273;28;20219;-85
2021/10/05 03:24:09;;;;;;;0.23;0.23;;;20.00;86.90;;;;;;5013159;28;20217;-83
2021/10/05 03:26:37;;;;;;;0.53;0.53;;;20.00;86.60;;;;;;5018107;28;20220;-83
2021/10/05 03:29:06;;;;;;;0.63;0.63;;;20.00;86.50;;;;;;5001791;28;20205;-83
2021/10/05 03:31:33;;;;;;;1.13;0.63;;;20.00;86.40;;;;;;5003913;28;20211;-83
2021/10/05 03:34:00;;;;;;;1.23;1.13;;;20.00;86.40;;;;;;5003647;28;20220;-83
2021/10/05 03:36:27;;;;;;;0.20;0.20;;;19.90;86.50;;;;;;5002346;28;20240;-83
2021/10/05 03:38:54;;;;;;;1.30;1.20;;;19.90;86.60;;;;;;5001639;28;20624;-82
2021/10/05 03:41:23;;;;;;;0.57;0.57;;;19.90;86.70;;;;;;5001239;28;20209;-82
2021/10/05 03:43:50;;;;;;;0.37;0.37;;;19.90;86.70;;;;;;5002491;28;20220;-83
2021/10/05 03:46:17;;;;;;;0.60;0.60;;;19.90;86.80;;;;;;5002140;28;20209;-83
2021/10/05 03:48:45;;;;;;;0.73;0.73;;;19.80;86.80;;;;;;5002897;28;20225;-82
2021/10/05 03:51:12;;;;;;;0.50;0.50;;;19.80;86.90;;;;;;5002673;28;20231;-83
2021/10/05 03:53:38;;;;;;;0.83;0.83;;;19.80;87.10;;;;;;5003074;28;20595;-82
2021/10/05 03:56:06;;;;;;;0.07;0.07;;;19.70;87.20;;;;;;5019865;28;20228;-83
2021/10/05 03:58:33;;;;;;;0.60;0.60;;;19.70;87.30;;;;;;5003557;28;20229;-83
2021/10/05 04:01:03;;;;;;;1.00;1.00;;;19.70;87.40;;;;;;5002437;28;20223;-82
2021/10/05 04:03:32;;;;;;;0.10;0.10;;;19.70;87.50;;;;;;5002270;28;20539;-83
2021/10/05 04:05:59;;;;;;;0.60;0.60;;;19.70;87.60;;;;;;5004180;28;20216;-82
2021/10/05 04:08:28;;;;;;;0.47;0.47;;;19.60;87.50;;;;;;5001539;28;20216;-83
2021/10/05 04:10:55;;;;;;;0.10;0.10;;;19.70;87.40;;;;;;5001762;28;20252;-82
2021/10/05 04:13:22;;;;;;;0.00;0.00;;;19.70;87.30;;;;;;4997516;28;20228;-82
2021/10/05 04:15:49;;;;;;;0.10;0.10;;;19.70;87.20;;;;;;4997701;28;20653;-83
2021/10/05 04:18:16;;;;;;;0.53;0.47;;;19.70;86.90;;;;;;4983431;28;20204;-83
2021/10/05 04:20:43;;;;;;;0.50;0.50;;;19.70;86.80;;;;;;4983367;28;20216;-82
2021/10/05 04:23:11;;;;;;;0.23;0.23;;;19.70;86.80;;;;;;4982750;28;20283;-83
2021/10/05 04:25:38;;;;;;;0.30;0.30;;;19.80;86.50;;;;;;4984322;28;20217;-82
2021/10/05 04:28:05;;;;;;;0.57;0.57;;;19.80;86.50;;;;;;4983306;28;20247;-84
2021/10/05 04:30:33;;;;;;;0.20;0.20;;;19.80;86.50;;;;;;4982791;28;20202;-83
2021/10/05 04:33:00;;;;;;;0.63;0.63;;;19.80;86.50;;;;;;4982609;28;20547;-82
2021/10/05 04:35:27;;;;;;;0.30;0.30;;;19.90;86.50;;;;;;4982532;28;20232;-82
2021/10/05 04:37:54;;;;;;;0.10;0.10;;;19.90;86.50;;;;;;4982668;28;20209;-82
2021/10/05 04:40:21;;;;;;;0.10;0.10;;;19.90;86.40;;;;;;4982462;28;20201;-82
2021/10/05 04:42:49;;;;;;;0.57;0.40;;;19.90;86.40;;;;;;4981724;28;20210;-83
2021/10/05 04:45:16;;;;;;;2.43;0.30;;;19.90;86.40;;;;;;4998760;28;20216;-83
2021/10/05 04:47:43;;;;;;;0.10;0.10;;;19.90;86.40;;;;;;4999226;28;20204;-83
2021/10/05 04:50:11;;;;;;;0.10;0.10;;;19.90;86.50;;;;;;5000309;28;20227;-84
2021/10/05 04:52:38;;;;;;;0.10;0.10;;;19.90;86.50;;;;;;4996829;28;20209;-82
2021/10/05 04:55:06;;;;;;;0.40;0.40;;;19.90;86.40;;;;;;5003247;28;20204;-82
2021/10/05 04:57:33;;;;;;;0.73;0.57;;;19.90;86.50;;;;;;4998328;28;20252;-82
2021/10/05 05:00:00;;;;;;;0.57;0.57;;;19.80;86.50;;;;;;5008760;28;20224;-83
2021/10/05 05:02:28;;;;;;;0.93;0.87;;;19.70;86.60;;;;;;5003205;28;20216;-82
2021/10/05 05:04:55;;;;;;;0.00;0.00;;;19.70;86.80;;;;;;4984749;28;20237;-82
2021/10/05 05:07:22;;;;;;;0.33;0.33;;;19.60;87.10;;;;;;5004774;28;20228;-83
2021/10/05 05:09:49;;;;;;;0.13;0.13;;;19.60;87.40;;;;;;4999205;28;20213;-83
2021/10/05 05:12:16;;;;;;;0.30;0.30;;;19.50;87.60;;;;;;5010963;28;20208;-82
2021/10/05 05:14:44;;;;;;;0.77;0.57;;;19.40;87.80;;;;;;5036000;28;20220;-82
2021/10/05 05:17:11;;;;;;;0.83;0.73;;;19.40;88.10;;;;;;5021829;28;20243;-83
2021/10/05 05:19:38;;;;;;;0.50;0.50;;;19.30;88.30;;;;;;5037048;28;20211;-83
2021/10/05 05:22:05;;;;;;;0.60;0.60;;;19.30;88.40;;;;;;5022872;28;20218;-83
2021/10/05 05:24:32;;;;;;;0.30;0.30;;;19.20;88.60;;;;;;5030926;28;20208;-82
2021/10/05 05:26:59;;;;;;;1.20;0.87;;;19.20;88.90;;;;;;5046903;28;20207;-82
2021/10/05 05:29:26;;;;;;;0.33;0.33;;;19.10;88.90;;;;;;5044559;28;20216;-83
2021/10/05 05:31:57;;;;;;;0.30;0.30;;;19.10;89.10;;;;;;5030584;28;20207;-83
2021/10/05 05:34:25;;;;;;;0.07;0.07;;;19.10;89.20;;;;;;5030268;28;20210;-83
2021/10/05 05:36:54;;;;;;;0.50;0.50;;;19.10;89.30;;;;;;5044076;28;20242;-83
2021/10/05 05:39:21;;;;;;;0.10;0.10;;;19.10;89.30;;;;;;5043355;28;20219;-83
2021/10/05 05:41:48;;;;;;;0.30;0.30;;;19.20;89.40;;;;;;5022696;28;20522;-83
2021/10/05 05:44:15;;;;;;;0.37;0.37;;;19.20;89.40;;;;;;5002588;28;20208;-83
2021/10/05 05:46:42;;;;;;;8.80;2.30;;;19.20;89.40;;;;;;5000082;28;20227;-82
2021/10/05 05:49:09;;;;;;;0.33;0.33;;;19.20;89.40;;;;;;4998317;28;20275;-83
2021/10/05 05:51:36;;;;;;;0.20;0.20;;;19.20;89.40;;;;;;4997435;28;21064;-83
2021/10/05 05:54:03;;;;;;;0.10;0.10;;;19.20;89.50;;;;;;5013965;28;20220;-83
2021/10/05 05:56:31;;;;;;;0.77;0.77;;;19.30;89.60;;;;;;5000987;28;20228;-83
2021/10/05 05:58:59;;;;;;;0.20;0.20;;;19.30;89.60;;;;;;5002537;28;20251;-82
2021/10/05 06:01:27;;;;;;;0.10;0.10;;;19.30;89.60;;;;;;5003496;28;20635;-82
2021/10/05 06:03:54;;;;;;;2.57;0.97;;;19.40;89.80;;;;;;5019751;28;20235;-83
2021/10/05 06:06:21;;;;;;;0.20;0.20;;;19.40;89.80;;;;;;5019580;28;20268;-83
2021/10/05 06:08:50;;;;;;;1.67;0.90;;;19.40;89.70;;;;;;5019614;28;20278;-83
2021/10/05 06:11:18;;;;;;;1.67;1.27;;;19.50;89.80;;;;;;5020334;28;20632;-83
2021/10/05 06:13:47;;;;;;;1.30;1.30;;;19.50;89.80;;;;;;5020236;28;20224;-83
2021/10/05 06:16:15;;;;;;;0.50;0.50;;;19.50;89.70;;;;;;5019288;28;20263;-83
2021/10/05 06:18:43;;;;;;;1.97;1.83;;;19.50;89.60;;;;;;5018539;28;20624;-83
2021/10/05 06:21:11;;;;;;;0.60;0.60;;;19.60;89.60;;;;;;5019069;28;20204;-83
2021/10/05 06:23:39;;;;;;;1.13;1.03;;;19.60;89.50;;;;;;5019837;28;20632;-83
2021/10/05 06:26:06;;;;;;;1.70;1.43;;;19.60;89.60;;;;;;5020852;28;20652;-83
2021/10/05 06:28:34;;;;;;;1.30;1.30;;;19.60;89.60;;;;;;5021106;28;20311;-83
2021/10/05 06:31:02;;;;;;;0.60;0.60;;;19.70;89.60;;;;;;5004413;28;20212;-82
2021/10/05 06:33:30;;;;;;;0.27;0.27;;;19.70;89.60;;;;;;5019217;28;20227;-83
2021/10/05 06:35:57;;;;;;;0.40;0.40;;;19.80;89.70;;;;;;5019062;28;20243;-82
2021/10/05 06:38:24;;;;;;;1.00;1.00;;;19.80;89.70;;;;;;5020021;28;20200;-83
2021/10/05 06:40:52;;;;;;;7.13;0.50;;;19.80;89.80;;;;;;5003263;28;20196;-83
2021/10/05 06:43:20;;;;;;;0.47;0.47;;;19.90;89.90;;;;;;5003489;28;20212;-83
2021/10/05 06:45:48;;;;;;;1.30;1.20;;;19.90;89.80;;;;;;5019796;28;20323;-83
2021/10/05 06:48:15;;;;;;;2.13;1.73;;;19.90;89.80;;;;;;5004076;28;20216;-83
2021/10/05 06:50:43;;;;;;;1.10;0.73;;;20.00;89.90;;;;;;5003502;28;20223;-83
2021/10/05 06:53:16;;;;;;;2.00;1.90;;;20.00;89.90;;;;;;5020298;28;20215;-83
2021/10/05 06:55:44;;;;;;;0.87;0.80;;;20.00;90.00;;;;;;5003424;28;20548;-83
2021/10/05 06:58:12;;;;;;;1.73;1.50;;;20.00;90.00;;;;;;5003305;28;20237;-82
2021/10/05 07:00:40;;;;;;;3.03;1.40;;;20.00;90.00;;;;;;5004226;28;20645;-83
2021/10/05 07:03:07;;;;;;;1.17;1.07;;;20.00;90.00;;;;;;5003294;28;20219;-83
2021/10/05 07:05:35;;;;;;;0.87;0.77;;;20.00;89.90;;;;;;5005463;28;20208;-83
2021/10/05 07:08:08;;;;;;;2.33;1.40;;;20.10;90.00;;;;;;5004026;28;20208;-83
2021/10/05 07:10:37;;;;;;;7.83;1.70;;;20.20;89.90;;;;;;5003938;28;20204;-83
2021/10/05 07:13:05;;;;;;;3.93;1.40;;;20.30;89.70;;;;;;5004730;28;20223;-83
2021/10/05 07:15:32;;;;;;;2.43;2.23;;;20.40;89.40;;;;;;5003058;28;20452;-83
2021/10/05 07:17:59;;;;;;;1.33;1.33;;;20.60;89.10;;;;;;5003714;28;20228;-84
2021/10/05 07:20:30;;;;;;;0.77;0.77;;;20.70;88.40;;;;;;5004254;28;20228;-84
2021/10/05 07:22:59;;;;;;;1.03;1.03;;;20.80;87.80;;;;;;5006644;28;20238;-84
2021/10/05 07:25:27;;;;;;;0.27;0.27;;;21.00;87.30;;;;;;5022538;28;20227;-84
2021/10/05 07:27:55;;;;;;;1.10;1.00;;;21.10;86.90;;;;;;5025130;28;20228;-85
2021/10/05 07:30:23;;;;;;;0.20;0.20;;;21.30;86.30;;;;;;5018653;28;20247;-84
2021/10/05 07:33:01;;;;;;;1.80;1.70;;;21.50;85.70;;;;;;5018127;28;20251;-84
2021/10/05 07:35:29;;;;;;;0.30;0.30;;;21.70;85.10;;;;;;5002158;28;20223;-85
2021/10/05 07:37:56;;;;;;;1.03;0.43;;;21.70;84.60;;;;;;5018992;28;20367;-83
2021/10/05 07:40:24;;;;;;;0.57;0.57;;;21.70;84.40;;;;;;5007553;28;20212;-84
2021/10/05 07:42:56;;;;;;;1.03;0.83;;;21.70;84.50;;;;;;5023394;28;20633;-84
2021/10/05 07:45:26;;;;;;;2.70;1.50;;;21.80;84.60;;;;;;5024613;28;20232;-84
2021/10/05 07:47:54;;;;;;;2.17;0.93;;;21.90;84.30;;;;;;5008293;28;20280;-84
2021/10/05 07:50:22;;;;;;;0.40;0.40;;;22.10;83.80;;;;;;5008934;28;20208;-84
2021/10/05 07:52:49;;;;;;;0.97;0.87;;;22.30;83.30;;;;;;5010122;28;20216;-84
2021/10/05 07:55:17;;;;;;;0.10;0.10;;;22.50;82.90;;;;;;5012152;28;20214;-84
2021/10/05 07:57:44;;;;;;;0.30;0.30;;;22.80;82.00;;;;;;5012173;28;20236;-85
2021/10/05 08:00:12;;;;;;;0.60;0.60;;;23.00;81.20;;;;;;5013446;28;20205;-84
2021/10/05 08:02:40;;;;;;;0.40;0.40;;;23.00;81.00;;;;;;5006908;28;20212;-83
2021/10/05 08:05:07;;;;;;;0.93;0.93;;;23.10;80.60;;;;;;5007830;28;20208;-84
2021/10/05 08:07:35;;;;;;;1.20;0.97;;;23.30;80.00;;;;;;5008715;28;20227;-84
2021/10/05 08:10:03;;;;;;;0.87;0.87;;;23.50;79.00;;;;;;5007878;28;20216;-84
2021/10/05 08:12:30;;;;;;;0.40;0.20;;;23.60;78.70;;;;;;5007807;28;20546;-84
2021/10/05 08:14:57;;;;;;;0.60;0.60;;;23.60;78.40;;;;;;5008599;28;20222;-85
2021/10/05 08:17:24;;;;;;;1.40;1.20;;;23.50;78.60;;;;;;5007567;28;20232;-84
2021/10/05 08:19:52;;;;;;;0.73;0.50;;;23.70;78.60;;;;;;5007672;28;20571;-84
2021/10/05 08:22:19;;;;;;;0.77;0.77;;;23.80;78.00;;;;;;5009099;28;20223;-84
2021/10/05 08:24:46;;;;;;;0.40;0.40;;;23.80;77.90;;;;;;5007138;28;20236;-84
2021/10/05 08:27:13;;;;;;;1.00;0.73;;;23.80;77.80;;;;;;5008041;28;20633;-84
2021/10/05 08:29:44;;;;;;;0.10;0.10;;;23.70;77.80;;;;;;5007677;28;20648;-84
2021/10/05 08:32:12;;;;;;;1.13;1.03;;;23.60;78.10;;;;;;5008936;28;20209;-84
2021/10/05 08:34:39;;;;;;;0.50;0.50;;;23.50;78.30;;;;;;5008001;28;20525;-84
2021/10/05 08:37:06;;;;;;;0.13;0.13;;;23.50;78.00;;;;;;5006984;28;20232;-83
2021/10/05 08:39:34;;;;;;;0.40;0.40;;;23.60;78.00;;;;;;5006760;28;20216;-84
2021/10/05 08:42:01;;;;;;;1.57;0.40;;;23.90;77.00;;;;;;5008350;28;20231;-84
2021/10/05 08:44:29;;;;;;;3.07;1.63;;;24.20;76.50;;;;;;5007079;28;20212;-84
2021/10/05 08:46:56;;;;;;;7.93;1.80;;;24.50;75.30;;;;;;5006764;28;20242;-84
2021/10/05 08:49:23;;;;;;;0.70;0.70;;;24.80;74.50;;;;;;5006764;28;20247;-85
2021/10/05 08:51:52;;;;;;;0.97;0.83;;;25.10;73.90;;;;;;5007149;28;20220;-85
2021/10/05 08:54:19;;;;;;;2.00;0.73;;;25.20;73.10;;;;;;5006946;28;20231;-85
2021/10/05 08:56:48;;;;;;;0.80;0.80;;;25.50;72.70;;;;;;5007127;28;20250;-85
2021/10/05 08:59:16;;;;;;;3.13;0.93;;;25.70;71.20;;;;;;5001596;28;20644;-84
2021/10/05 09:01:46;;;;;;;2.20;2.00;;;25.70;70.60;;;;;;4986800;28;20284;-84
2021/10/05 09:04:14;;;;;;;0.23;0.23;;;25.80;70.40;;;;;;4987747;28;20277;-84
2021/10/05 09:06:43;;;;;;;0.40;0.40;;;25.90;69.80;;;;;;4983743;28;20213;-84
2021/10/05 09:09:10;;;;;;;0.53;0.53;;;26.00;70.20;;;;;;4986566;28;20209;-85
2021/10/05 09:11:52;;;;;;;0.73;0.73;;;26.10;69.50;;;;;;4984614;28;20243;-85
2021/10/05 09:14:21;;;;;;;2.93;0.63;;;26.20;68.70;;;;;;4983739;28;20240;-85
2021/10/05 09:16:48;;;;;;;0.37;0.37;;;26.10;67.30;;;;;;4985315;28;20743;-84
2021/10/05 09:19:17;;;;;;;0.37;0.37;;;25.90;67.50;;;;;;4991691;28;20267;-84
2021/10/05 09:21:50;;;;;;;0.53;0.53;;;25.50;68.00;;;;;;5003353;28;20217;-85
2021/10/05 09:24:27;;;;;;;0.53;0.50;;;25.40;68.30;;;;;;5005288;28;20256;-84
2021/10/05 09:27:00;;;;;;;0.40;0.40;;;25.50;68.00;;;;;;5015796;28;20223;-86
2021/10/05 09:29:32;;;;;;;0.87;0.87;;;25.60;67.30;;;;;;5004032;28;20280;-85
2021/10/05 09:32:09;;;;;;;0.10;0.10;;;25.70;67.40;;;;;;5004630;28;20217;-85
2021/10/05 09:34:46;;;;;;;0.40;0.40;;;25.90;67.20;;;;;;5005262;28;20199;-85
2021/10/05 09:37:15;;;;;;;0.00;0.00;;;26.10;66.40;;;;;;5003255;28;20286;-86
2021/10/05 09:39:54;;;;;;;0.30;0.30;;;26.40;65.90;;;;;;5002466;28;20212;-86
2021/10/05 09:42:25;;;;;;;0.30;0.30;;;26.70;65.00;;;;;;5002697;28;20279;-84
2021/10/05 09:45:09;;;;;;;0.30;0.30;;;26.90;64.40;;;;;;5001640;28;20243;-85
2021/10/05 09:47:43;;;;;;;0.20;0.20;;;27.00;63.90;;;;;;5020383;28;20211;-85
2021/10/05 09:50:14;;;;;;;0.00;0.00;;;27.20;62.70;;;;;;5001177;28;20212;-86
2021/10/05 09:52:46;;;;;;;0.30;0.30;;;27.20;62.20;;;;;;4992064;28;20221;-86
2021/10/05 09:55:16;;;;;;;0.40;0.20;;;27.30;61.00;;;;;;4987425;28;20230;-86
2021/10/05 09:57:43;;;;;;;0.10;0.10;;;27.40;60.30;;;;;;5005184;28;20239;-85
2021/10/05 10:00:12;;;;;;;1.03;0.20;;;27.50;60.10;;;;;;5005560;28;20212;-86
2021/10/05 10:02:42;;;;;;;0.10;0.10;;;27.50;58.50;;;;;;5022429;28;20218;-85
2021/10/05 10:05:15;;;;;;;1.30;1.17;;;27.50;58.30;;;;;;4988756;28;20617;-86
2021/10/05 10:07:49;;;;;;;0.10;0.10;;;27.50;57.80;;;;;;4983997;28;20213;-86
2021/10/05 10:10:22;;;;;;;0.10;0.10;;;27.50;57.90;;;;;;4981819;28;20280;-85
2021/10/05 10:12:57;;;;;;;0.20;0.20;;;27.60;57.30;;;;;;4980487;28;20196;-86
2021/10/05 10:15:33;;;;;;;0.10;0.10;;;27.70;57.60;;;;;;4981085;28;20575;-87
2021/10/05 10:18:11;;;;;;;0.00;0.00;;;27.90;57.60;;;;;;4985775;28;20232;-87
2021/10/05 10:20:41;;;;;;;0.40;0.40;;;28.10;56.90;;;;;;5000632;28;20207;-84
2021/10/05 10:23:27;;;;;;;0.20;0.20;;;28.20;56.20;;;;;;4999373;28;20217;-85
2021/10/05 10:26:07;;;;;;;0.10;0.10;;;27.90;55.80;;;;;;4984148;28;20246;-85
2021/10/05 10:28:38;;;;;;;0.10;0.10;;;27.50;55.20;;;;;;4994752;28;20244;-85
2021/10/05 10:31:16;;;;;;;0.20;0.20;;;27.40;55.40;;;;;;4995339;28;20661;-86
2021/10/05 10:33:50;;;;;;;0.10;0.10;;;27.60;55.20;;;;;;4998612;28;20207;-84
2021/10/05 10:36:41;;;;;;;0.00;0.00;;;27.80;54.80;;;;;;4989702;28;20219;-83
2021/10/05 10:39:15;;;;;;;0.20;0.20;;;28.00;53.80;;;;;;4982296;28;20202;-83
2021/10/05 10:41:53;;;;;;;0.00;0.00;;;28.00;53.50;;;;;;4996400;28;20208;-84
2021/10/05 10:44:29;;;;;;;0.10;0.10;;;27.80;53.10;;;;;;4999978;28;20251;-85
2021/10/05 10:47:16;;;;;;;0.00;0.00;;;27.40;53.90;;;;;;4996355;28;20618;-83
2021/10/05 10:49:54;;;;;;;0.17;0.17;;;27.10;54.50;;;;;;4979008;28;20221;-83
2021/10/05 10:52:27;;;;;;;0.13;0.13;;;26.80;55.00;;;;;;4999423;28;20831;-83
2021/10/05 10:54:56;;;;;;;3.83;0.63;;;26.50;54.20;;;;;;4997642;28;20239;-84
2021/10/05 10:57:41;;;;;;;0.47;0.20;;;26.20;55.00;;;;;;4983006;28;20579;-85
2021/10/05 11:00:16;;;;;;;5.57;0.67;;;26.20;55.60;;;;;;4993762;28;20695;-85
2021/10/05 11:02:46;;;;;;;0.00;0.00;;;26.40;55.60;;;;;;5014576;28;20207;-82
2021/10/05 11:05:16;;;;;;;0.97;0.57;;;26.70;55.50;;;;;;4978904;28;20305;-84
2021/10/05 11:07:43;;;;;;;0.10;0.10;;;27.00;54.70;;;;;;4986145;28;20304;-84
2021/10/05 11:10:10;;;;;;;0.20;0.20;;;27.30;54.50;;;;;;4993564;28;20216;-84
2021/10/05 11:12:49;;;;;;;0.00;0.00;;;27.60;53.90;;;;;;4998821;28;20236;-87
2021/10/05 11:15:17;;;;;;;0.10;0.10;;;27.80;52.60;;;;;;4985399;28;20215;-85
2021/10/05 11:17:45;;;;;;;0.40;0.20;;;27.90;52.80;;;;;;4985343;28;20240;-85
2021/10/05 11:20:12;;;;;;;0.93;0.47;;;28.00;52.70;;;;;;4999007;28;20208;-84
2021/10/05 11:22:39;;;;;;;0.30;0.20;;;27.70;52.30;;;;;;4997116;28;20213;-86
2021/10/05 11:25:06;;;;;;;0.30;0.30;;;27.50;51.90;;;;;;4984005;28;20221;-83
2021/10/05 11:27:34;;;;;;;0.53;0.53;;;27.00;53.10;;;;;;4997158;28;20220;-84
2021/10/05 11:30:06;;;;;;;0.10;0.10;;;26.80;53.70;;;;;;4990587;28;20229;-83
2021/10/05 11:32:51;;;;;;;0.43;0.43;;;26.60;53.50;;;;;;4989624;28;20221;-88
2021/10/05 11:35:18;;;;;;;0.07;0.07;;;26.60;54.00;;;;;;4985762;28;20684;-85
2021/10/05 11:37:45;;;;;;;1.40;0.80;;;26.50;53.50;;;;;;4988150;28;20240;-85
2021/10/05 11:40:12;;;;;;;0.30;0.30;;;26.70;53.70;;;;;;4996718;28;20228;-83
2021/10/05 11:42:39;;;;;;;3.80;0.77;;;27.00;54.00;;;;;;4992801;28;20543;-87
2021/10/05 11:45:08;;;;;;;0.10;0.10;;;27.20;53.40;;;;;;4990077;28;20648;-86
2021/10/05 11:47:35;;;;;;;0.57;0.23;;;27.40;53.70;;;;;;5010495;28;20676;-84
2021/10/05 11:50:06;;;;;;;0.10;0.10;;;27.40;52.80;;;;;;5002004;28;20694;-83
2021/10/05 11:52:39;;;;;;;0.20;0.20;;;27.40;52.80;;;;;;5009694;28;20219;-85
2021/10/05 11:55:06;;;;;;;0.07;0.07;;;27.40;52.00;;;;;;4993819;28;20224;-83
2021/10/05 11:57:34;;;;;;;0.10;0.10;;;27.20;52.40;;;;;;4996957;28;20263;-84
2021/10/05 12:00:10;;;;;;;0.00;0.00;;;26.90;52.60;;;;;;4998421;28;20204;-85
2021/10/05 12:02:41;;;;;;;3.60;0.67;;;26.70;52.80;;;;;;4997396;28;20223;-85
2021/10/05 12:05:24;;;;;;;0.10;0.10;;;26.50;53.10;;;;;;4986272;28;20259;-84
2021/10/05 12:08:02;;;;;;;1.60;0.77;;;26.40;52.80;;;;;;4989094;28;20224;-85
2021/10/05 12:10:29;;;;;;;0.37;0.37;;;26.30;52.60;;;;;;4980666;28;20189;-84
2021/10/05 12:12:56;;;;;;;0.43;0.37;;;26.20;53.60;;;;;;4989308;28;20542;-83
2021/10/05 12:15:24;;;;;;;0.10;0.10;;;26.20;53.50;;;;;;4998869;28;20215;-83
2021/10/05 12:18:09;;;;;;;0.27;0.27;;;26.20;52.80;;;;;;5003761;28;20245;-85
2021/10/05 12:21:02;;;;;;;0.10;0.10;;;26.20;53.00;;;;;;4992727;28;20300;-85
2021/10/05 12:23:30;;;;;;;0.00;0.00;;;26.20;53.50;;;;;;5004160;28;20624;-86
2021/10/05 12:26:10;;;;;;;0.00;0.00;;;26.10;53.40;;;;;;4996215;28;20565;-86
2021/10/05 12:28:39;;;;;;;0.00;0.00;;;26.00;53.50;;;;;;4994176;28;20220;-86
2021/10/05 12:31:16;;;;;;;0.00;0.00;;;26.10;53.30;;;;;;5001472;28;20216;-85
2021/10/05 12:34:13;;;;;;;0.37;0.30;;;26.00;53.10;;;;;;4997771;28;20228;-83
2021/10/05 12:36:43;;;;;;;0.00;0.00;;;25.90;52.50;;;;;;4942420;28;20225;-86
2021/10/05 12:39:13;;;;;;;0.10;0.10;;;25.70;51.90;;;;;;4984487;28;20674;-84
2021/10/05 12:41:41;;;;;;;0.00;0.00;;;25.70;51.70;;;;;;4993298;28;20221;-86
2021/10/05 12:44:16;;;;;;;0.10;0.10;;;25.60;52.00;;;;;;5000926;28;20239;-85
2021/10/05 12:47:01;;;;;;;0.37;0.10;;;25.60;51.80;;;;;;4991909;28;20215;-85
2021/10/05 12:49:28;;;;;;;0.20;0.20;;;25.50;52.00;;;;;;5007644;28;20216;-85
2021/10/05 12:51:56;;;;;;;0.00;0.00;;;25.40;52.50;;;;;;4981945;28;20213;-85
2021/10/05 12:54:24;;;;;;;0.00;0.00;;;25.40;52.80;;;;;;4981357;28;20228;-85
2021/10/05 12:56:52;;;;;;;0.30;0.30;;;25.40;52.90;;;;;;4980956;28;20249;-84
2021/10/05 12:59:19;;;;;;;0.47;0.47;;;25.40;52.70;;;;;;4996324;28;20228;-84